createdAt,value
2018-03-06T00:01:50.676Z,-0.21
2018-03-06T00:04:19.061Z,-0.22
2018-03-06T00:06:48.175Z,-0.20
2018-03-06T00:09:16.946Z,-0.26
2018-03-06T00:11:46.411Z,-0.25
2018-03-06T00:14:15.539Z,-0.30
2018-03-06T00:16:43.924Z,-0.30
2018-03-06T00:19:12.283Z,-0.30
2018-03-06T00:21:40.651Z,-0.32
2018-03-06T00:24:09.393Z,-0.37
2018-03-06T00:26:37.764Z,-0.44
2018-03-06T00:29:06.108Z,-0.49
2018-03-06T00:31:34.616Z,-0.51
2018-03-06T00:34:02.992Z,-0.53
2018-03-06T00:36:31.328Z,-0.53
2018-03-06T00:39:00.536Z,-0.48
2018-03-06T00:41:29.284Z,-0.48
2018-03-06T00:43:57.642Z,-0.46
2018-03-06T00:46:26.764Z,-0.48
2018-03-06T00:48:56.283Z,-0.53
2018-03-06T00:51:25.392Z,-0.63
2018-03-06T00:53:53.772Z,-0.66
2018-03-06T00:56:22.150Z,-0.71
2018-03-06T00:58:50.483Z,-0.73
2018-03-06T01:01:18.863Z,-0.75
2018-03-06T01:03:47.200Z,-0.74
2018-03-06T01:06:16.320Z,-0.50
2018-03-06T01:08:44.696Z,-0.57
2018-03-06T01:11:13.022Z,-0.59
2018-03-06T01:13:42.170Z,-0.53
2018-03-06T01:16:11.262Z,-0.54
2018-03-06T01:18:40.399Z,-0.51
2018-03-06T01:21:09.504Z,-0.55
2018-03-06T01:23:38.652Z,-0.59
2018-03-06T01:26:07.068Z,-0.65
2018-03-06T01:28:35.432Z,-0.70
2018-03-06T01:31:03.804Z,-0.70
2018-03-06T01:33:32.133Z,-0.74
2018-03-06T01:36:00.489Z,-0.74
2018-03-06T01:38:29.591Z,-0.72
2018-03-06T01:40:58.719Z,-0.65
2018-03-06T01:43:27.093Z,-0.60
2018-03-06T01:45:55.434Z,-0.60
2018-03-06T01:48:24.944Z,-0.62
2018-03-06T01:50:53.697Z,-0.61
2018-03-06T01:53:22.055Z,-0.59
2018-03-06T01:55:50.385Z,-0.59
2018-03-06T01:58:19.873Z,-0.57
2018-03-06T02:00:48.210Z,-0.56
2018-03-06T02:03:16.570Z,-0.49
2018-03-06T02:05:44.899Z,-0.46
2018-03-06T02:08:13.243Z,-0.42
2018-03-06T02:10:42.063Z,-0.34
2018-03-06T02:13:10.397Z,-0.37
2018-03-06T02:15:38.743Z,-0.39
2018-03-06T02:18:07.106Z,-0.39
2018-03-06T02:20:35.491Z,-0.49
2018-03-06T02:23:04.671Z,-0.39
2018-03-06T02:25:34.549Z,-0.37
2018-03-06T02:28:02.903Z,-0.36
2018-03-06T02:30:31.280Z,-0.35
2018-03-06T02:32:59.643Z,-0.33
2018-03-06T02:35:28.803Z,-0.31
2018-03-06T02:37:57.138Z,-0.41
2018-03-06T02:40:25.469Z,-0.50
2018-03-06T02:42:53.849Z,-0.57
2018-03-06T02:45:22.217Z,-0.66
2018-03-06T02:47:50.561Z,-0.67
2018-03-06T02:50:19.673Z,-0.66
2018-03-06T02:52:48.039Z,-0.66
2018-03-06T02:55:16.391Z,-0.68
2018-03-06T02:57:44.761Z,-0.61
2018-03-06T03:00:13.911Z,-0.63
2018-03-06T03:02:42.271Z,-0.69
2018-03-06T03:05:11.004Z,-0.77
2018-03-06T03:07:40.141Z,-0.85
2018-03-06T03:10:08.471Z,-0.88
2018-03-06T03:12:36.871Z,-0.93
2018-03-06T03:15:05.979Z,-0.98
2018-03-06T03:17:34.315Z,-1.01
2018-03-06T03:20:03.115Z,-1.06
2018-03-06T03:22:32.636Z,-1.08
2018-03-06T03:25:01.763Z,-1.13
2018-03-06T03:27:30.091Z,-1.19
2018-03-06T03:29:58.464Z,-1.20
2018-03-06T03:32:28.337Z,-1.22
2018-03-06T03:34:57.809Z,-1.24
2018-03-06T03:37:26.138Z,-1.25
2018-03-06T03:39:54.502Z,-1.31
2018-03-06T03:42:22.860Z,-1.34
2018-03-06T03:44:51.228Z,-1.33
2018-03-06T03:47:19.553Z,-1.36
2018-03-06T03:49:47.917Z,-1.38
2018-03-06T03:52:16.246Z,-1.40
2018-03-06T03:54:45.018Z,-1.39
2018-03-06T03:57:14.131Z,-1.41
2018-03-06T03:59:42.506Z,-1.40
2018-03-06T04:02:11.635Z,-1.40
2018-03-06T04:04:39.974Z,-1.47
2018-03-06T04:07:09.079Z,-1.51
2018-03-06T04:09:38.202Z,-1.52
2018-03-06T04:12:06.522Z,-1.49
2018-03-06T04:14:36.388Z,-1.41
2018-03-06T04:17:04.740Z,-1.39
2018-03-06T04:19:33.862Z,-1.36
2018-03-06T04:22:02.220Z,-1.32
2018-03-06T04:24:30.986Z,-1.32
2018-03-06T04:26:59.721Z,-1.28
2018-03-06T04:29:28.100Z,-1.30
2018-03-06T04:31:56.479Z,-1.25
2018-03-06T04:34:24.822Z,-1.21
2018-03-06T04:36:53.554Z,-1.20
2018-03-06T04:39:23.433Z,-1.18
2018-03-06T04:41:51.967Z,-1.18
2018-03-06T04:44:20.302Z,-1.19
2018-03-06T04:46:48.722Z,-1.15
2018-03-06T04:49:17.458Z,-1.16
2018-03-06T04:51:45.833Z,-1.16
2018-03-06T04:54:14.166Z,-1.08
2018-03-06T04:56:42.542Z,-1.09
2018-03-06T04:59:10.917Z,-1.04
2018-03-06T05:01:39.264Z,-1.04
2018-03-06T05:04:07.767Z,-1.04
2018-03-06T05:06:36.138Z,-1.01
2018-03-06T05:09:04.502Z,-1.02
2018-03-06T05:11:34.000Z,-0.99
2018-03-06T05:14:03.187Z,-0.97
2018-03-06T05:16:31.575Z,-0.92
2018-03-06T05:18:59.914Z,-0.90
2018-03-06T05:21:29.021Z,-0.87
2018-03-06T05:23:58.162Z,-0.91
2018-03-06T05:26:26.502Z,-0.91
2018-03-06T05:28:54.867Z,-0.89
2018-03-06T05:31:23.602Z,-0.90
2018-03-06T05:33:51.988Z,-0.90
2018-03-06T05:36:20.342Z,-0.89
2018-03-06T05:38:49.466Z,-0.90
2018-03-06T05:41:17.829Z,-0.85
2018-03-06T05:43:46.194Z,-0.83
2018-03-06T05:46:14.566Z,-0.79
2018-03-06T05:48:44.073Z,-0.83
2018-03-06T05:51:12.414Z,-0.81
2018-03-06T05:53:41.553Z,-0.79
2018-03-06T05:56:10.750Z,-0.81
2018-03-06T05:58:39.228Z,-0.85
2018-03-06T06:01:08.916Z,-0.77
2018-03-06T06:03:38.917Z,-0.70
2018-03-06T06:06:08.382Z,-0.63
2018-03-06T06:08:36.754Z,-0.60
2018-03-06T06:11:05.921Z,-0.51
2018-03-06T06:13:34.266Z,-0.43
2018-03-06T06:16:03.413Z,-0.32
2018-03-06T06:18:32.120Z,-0.23
2018-03-06T06:21:00.453Z,-0.10
2018-03-06T06:23:29.936Z,-0.02
2018-03-06T06:25:58.261Z,-0.02
2018-03-06T06:28:26.607Z,0.07
2018-03-06T06:30:55.842Z,0.11
2018-03-06T06:33:24.233Z,0.28
2018-03-06T06:35:52.957Z,0.43
2018-03-06T06:38:21.313Z,0.54
2018-03-06T06:40:49.662Z,0.58
2018-03-06T06:43:18.013Z,0.65
2018-03-06T06:45:46.337Z,0.87
2018-03-06T06:48:14.668Z,0.93
2018-03-06T06:50:42.995Z,1.03
2018-03-06T06:53:11.342Z,1.13
2018-03-06T06:55:39.763Z,1.16
2018-03-06T06:58:08.056Z,0.79
2018-03-06T07:00:36.805Z,1.17
2018-03-06T07:03:05.141Z,1.41
2018-03-06T07:05:34.219Z,1.50
2018-03-06T07:08:03.324Z,1.49
2018-03-06T07:10:32.447Z,1.64
2018-03-06T07:13:00.764Z,1.67
2018-03-06T07:15:30.256Z,1.72
2018-03-06T07:17:58.973Z,1.66
2018-03-06T07:20:27.314Z,1.98
2018-03-06T07:22:56.011Z,2.01
2018-03-06T07:25:24.750Z,2.06
2018-03-06T07:27:53.476Z,1.78
2018-03-06T07:30:22.554Z,2.26
2018-03-06T07:32:51.697Z,2.16
2018-03-06T07:35:20.024Z,2.02
2018-03-06T07:37:48.327Z,1.95
2018-03-06T07:40:16.660Z,2.37
2018-03-06T07:42:45.017Z,2.66
2018-03-06T07:45:14.123Z,2.93
2018-03-06T07:47:43.243Z,3.04
2018-03-06T07:50:11.590Z,2.39
2018-03-06T07:52:40.676Z,2.61
2018-03-06T07:55:09.796Z,2.40
2018-03-06T07:57:38.196Z,2.65
2018-03-06T08:00:06.509Z,2.62
2018-03-06T08:02:34.825Z,3.11
2018-03-06T08:05:03.189Z,3.16
2018-03-06T08:07:31.912Z,3.02
2018-03-06T08:10:00.233Z,3.25
2018-03-06T08:12:28.585Z,2.78
2018-03-06T08:14:56.892Z,2.63
2018-03-06T08:17:25.238Z,2.77
2018-03-06T08:19:53.593Z,2.78
2018-03-06T08:22:21.904Z,2.78
2018-03-06T08:24:50.268Z,2.73
2018-03-06T08:27:18.580Z,3.00
2018-03-06T08:29:46.917Z,3.09
2018-03-06T08:32:15.334Z,3.26
2018-03-06T08:34:43.653Z,2.94
2018-03-06T08:37:12.012Z,3.43
2018-03-06T08:39:41.104Z,3.65
2018-03-06T08:42:10.226Z,3.58
2018-03-06T08:44:39.305Z,3.11
2018-03-06T08:47:07.638Z,3.30
2018-03-06T08:49:35.952Z,3.46
2018-03-06T08:52:05.085Z,4.02
2018-03-06T08:54:33.428Z,4.22
2018-03-06T08:57:02.880Z,3.22
2018-03-06T08:59:31.227Z,3.01
2018-03-06T09:01:59.613Z,3.60
2018-03-06T09:04:27.960Z,4.05
2018-03-06T09:06:57.094Z,3.46
2018-03-06T09:09:25.431Z,3.14
2018-03-06T09:11:54.520Z,3.22
2018-03-06T09:14:23.264Z,3.15
2018-03-06T09:16:51.612Z,3.53
2018-03-06T09:19:19.987Z,3.55
2018-03-06T09:21:48.320Z,3.65
2018-03-06T09:24:16.667Z,4.49
2018-03-06T09:26:45.020Z,4.66
2018-03-06T09:29:13.330Z,5.34
2018-03-06T09:31:43.121Z,5.42
2018-03-06T09:34:11.434Z,5.04
2018-03-06T09:36:39.796Z,4.53
2018-03-06T09:39:08.108Z,4.28
2018-03-06T09:41:37.178Z,4.44
2018-03-06T09:44:05.520Z,4.74
2018-03-06T09:46:33.836Z,4.39
2018-03-06T09:49:02.204Z,5.15
2018-03-06T09:51:30.576Z,4.94
2018-03-06T09:53:58.904Z,4.67
2018-03-06T09:56:27.978Z,5.63
2018-03-06T09:58:56.321Z,5.13
2018-03-06T10:01:24.676Z,4.68
2018-03-06T10:06:21.334Z,4.66
2018-03-06T10:08:49.654Z,5.02
2018-03-06T10:11:17.981Z,4.79
2018-03-06T10:13:46.299Z,4.74
2018-03-06T10:16:14.727Z,4.64
2018-03-06T10:18:43.049Z,4.55
2018-03-06T10:21:11.397Z,4.44
2018-03-06T10:23:39.733Z,4.51
2018-03-06T10:26:08.135Z,4.68
2018-03-06T10:28:37.627Z,5.02
2018-03-06T10:31:06.708Z,4.76
2018-03-06T10:33:35.052Z,4.99
2018-03-06T10:36:03.365Z,5.75
2018-03-06T10:38:32.471Z,6.57
2018-03-06T10:41:01.559Z,5.85
2018-03-06T10:43:29.926Z,5.61
2018-03-06T10:45:58.266Z,5.20
2018-03-06T10:48:26.627Z,5.98
2018-03-06T10:50:54.931Z,6.16
2018-03-06T10:53:23.255Z,6.10
2018-03-06T10:55:52.371Z,5.44
2018-03-06T10:58:20.703Z,4.94
2018-03-06T11:00:49.046Z,4.75
2018-03-06T11:03:23.155Z,5.31
2018-03-06T11:05:51.463Z,5.24
2018-03-06T11:08:19.845Z,4.80
2018-03-06T11:10:48.181Z,4.27
2018-03-06T11:13:16.525Z,4.01
2018-03-06T11:15:44.844Z,4.14
2018-03-06T11:18:13.186Z,4.32
2018-03-06T11:20:42.408Z,4.17
2018-03-06T11:23:10.743Z,4.11
2018-03-06T11:25:39.842Z,4.13
2018-03-06T11:28:08.917Z,4.19
2018-03-06T11:30:37.257Z,4.32
2018-03-06T11:33:05.604Z,4.30
2018-03-06T11:35:33.938Z,4.19
2018-03-06T11:38:02.289Z,4.25
2018-03-06T11:40:30.678Z,4.38
2018-03-06T11:42:59.013Z,4.50
2018-03-06T11:45:28.077Z,4.23
2018-03-06T11:47:56.422Z,4.47
2018-03-06T11:50:24.742Z,4.31
2018-03-06T11:52:53.096Z,3.88
2018-03-06T11:55:21.421Z,4.10
2018-03-06T11:57:49.740Z,4.08
2018-03-06T12:00:18.111Z,3.90
2018-03-06T12:02:46.426Z,4.36
2018-03-06T12:05:14.774Z,4.14
2018-03-06T12:07:43.107Z,4.44
2018-03-06T12:10:12.227Z,4.04
2018-03-06T12:12:40.540Z,3.98
2018-03-06T12:15:08.892Z,4.14
2018-03-06T12:17:37.242Z,3.31
2018-03-06T12:20:05.596Z,3.40
2018-03-06T12:22:34.687Z,3.66
2018-03-06T12:25:03.810Z,3.79
2018-03-06T12:27:32.126Z,3.78
2018-03-06T12:30:00.454Z,3.70
2018-03-06T12:32:29.574Z,3.38
2018-03-06T12:34:57.894Z,3.46
2018-03-06T12:37:26.241Z,3.76
2018-03-06T12:39:54.549Z,3.74
2018-03-06T12:42:22.902Z,3.42
2018-03-06T12:44:51.201Z,3.27
2018-03-06T12:47:19.549Z,3.37
2018-03-06T12:49:47.864Z,3.59
2018-03-06T12:52:16.227Z,3.08
2018-03-06T12:54:44.596Z,2.87
2018-03-06T12:57:12.888Z,3.06
2018-03-06T12:59:41.196Z,3.06
2018-03-06T13:02:10.308Z,3.43
2018-03-06T13:04:39.399Z,3.86
2018-03-06T13:07:07.776Z,4.18
2018-03-06T13:09:36.869Z,3.49
2018-03-06T13:12:05.233Z,3.38
2018-03-06T13:14:34.366Z,3.05
2018-03-06T13:17:02.682Z,3.32
2018-03-06T13:19:30.991Z,3.23
2018-03-06T13:21:59.337Z,3.11
2018-03-06T13:24:27.686Z,2.92
2018-03-06T13:26:56.038Z,3.20
2018-03-06T13:29:24.404Z,3.34
2018-03-06T13:31:52.732Z,3.31
2018-03-06T13:34:21.090Z,3.19
2018-03-06T13:36:49.464Z,3.23
2018-03-06T13:39:17.824Z,3.27
2018-03-06T13:41:46.170Z,3.03
2018-03-06T13:44:15.289Z,3.02
2018-03-06T13:46:43.653Z,3.27
2018-03-06T13:49:11.974Z,3.46
2018-03-06T13:51:41.085Z,3.76
2018-03-06T13:54:09.417Z,3.20
2018-03-06T13:56:37.818Z,3.25
2018-03-06T13:59:06.163Z,3.21
2018-03-06T14:01:34.885Z,3.18
2018-03-06T14:04:03.232Z,2.95
2018-03-06T14:06:31.599Z,2.97
2018-03-06T14:09:00.733Z,2.81
2018-03-06T14:11:29.081Z,3.31
2018-03-06T14:13:57.411Z,3.18
2018-03-06T14:16:25.763Z,3.19
2018-03-06T14:18:54.079Z,2.83
2018-03-06T14:21:22.460Z,2.71
2018-03-06T14:23:50.768Z,2.71
2018-03-06T14:26:19.131Z,2.86
2018-03-06T14:28:48.253Z,2.81
2018-03-06T14:31:16.621Z,2.73
2018-03-06T14:33:44.953Z,2.71
2018-03-06T14:36:14.066Z,2.92
2018-03-06T14:38:42.391Z,2.93
2018-03-06T14:41:11.507Z,2.74
2018-03-06T14:43:39.864Z,2.69
2018-03-06T14:46:08.211Z,2.59
2018-03-06T14:48:36.921Z,2.58
2018-03-06T14:51:05.277Z,2.59
2018-03-06T14:53:33.625Z,2.72
2018-03-06T14:56:02.101Z,2.60
2018-03-06T14:58:31.817Z,2.57
2018-03-06T15:01:00.153Z,2.74
2018-03-06T15:03:28.484Z,2.80
2018-03-06T15:05:56.817Z,2.71
2018-03-06T15:08:25.159Z,2.75
2018-03-06T15:10:53.693Z,2.71
2018-03-06T15:13:22.191Z,2.59
2018-03-06T15:15:50.977Z,2.41
2018-03-06T15:18:19.336Z,2.69
2018-03-06T15:20:47.649Z,2.74
2018-03-06T15:23:17.004Z,2.57
2018-03-06T15:25:45.330Z,2.50
2018-03-06T15:28:14.308Z,2.58
2018-03-06T15:30:42.792Z,2.56
2018-03-06T15:33:11.944Z,2.51
2018-03-06T15:35:40.339Z,2.40
2018-03-06T15:38:08.660Z,2.44
2018-03-06T15:40:38.343Z,2.50
2018-03-06T15:43:08.045Z,2.65
2018-03-06T15:45:36.368Z,2.48
2018-03-06T15:48:05.483Z,2.42
2018-03-06T15:50:33.869Z,2.43
2018-03-06T15:53:02.511Z,2.40
2018-03-06T15:55:32.870Z,2.46
2018-03-06T15:58:02.148Z,2.46
2018-03-06T16:00:30.621Z,2.55
2018-03-06T16:02:59.457Z,2.44
2018-03-06T16:05:31.157Z,2.45
2018-03-06T16:08:00.801Z,2.48
2018-03-06T16:10:29.229Z,2.51
2018-03-06T16:12:58.052Z,2.52
2018-03-06T16:15:28.494Z,2.47
2018-03-06T16:17:57.018Z,2.43
2018-03-06T16:20:26.255Z,2.38
2018-03-06T16:22:54.918Z,2.40
2018-03-06T16:25:24.380Z,2.42
2018-03-06T16:27:52.702Z,2.39
2018-03-06T16:30:21.165Z,2.36
2018-03-06T16:32:49.537Z,1.67
2018-03-06T16:35:18.313Z,2.28
2018-03-06T16:37:47.886Z,2.22
2018-03-06T16:40:16.726Z,2.23
2018-03-06T16:42:45.165Z,2.17
2018-03-06T16:45:13.492Z,2.16
2018-03-06T16:47:41.859Z,2.12
2018-03-06T16:50:11.381Z,2.14
2018-03-06T16:52:40.868Z,2.24
2018-03-06T16:55:09.608Z,2.14
2018-03-06T16:57:38.032Z,2.15
2018-03-06T17:00:06.493Z,2.04
2018-03-06T17:02:35.234Z,2.05
2018-03-06T17:05:03.593Z,2.04
2018-03-06T17:07:31.906Z,1.99
2018-03-06T17:10:00.242Z,1.98
2018-03-06T17:12:28.570Z,2.05
2018-03-06T17:14:57.327Z,1.97
2018-03-06T17:17:26.417Z,2.03
2018-03-06T17:19:55.155Z,2.00
2018-03-06T17:22:23.513Z,2.03
2018-03-06T17:24:51.850Z,2.04
2018-03-06T17:27:20.970Z,2.00
2018-03-06T17:29:49.283Z,2.03
2018-03-06T17:32:17.627Z,2.02
2018-03-06T17:34:45.974Z,2.02
2018-03-06T17:37:15.063Z,1.97
2018-03-06T17:39:43.405Z,2.03
2018-03-06T17:42:11.756Z,2.00
2018-03-06T17:44:40.098Z,1.98
2018-03-06T17:47:09.840Z,2.03
2018-03-06T17:49:38.935Z,1.98
2018-03-06T17:52:08.055Z,2.01
2018-03-06T17:54:36.364Z,2.01
2018-03-06T17:57:04.724Z,2.09
2018-03-06T17:59:33.067Z,2.02
2018-03-06T18:02:01.396Z,2.03
2018-03-06T18:04:29.753Z,2.01
2018-03-06T18:06:58.085Z,2.07
2018-03-06T18:09:26.485Z,2.12
2018-03-06T18:11:54.807Z,2.08
2018-03-06T18:14:23.152Z,2.09
2018-03-06T18:16:51.509Z,2.03
2018-03-06T18:19:19.827Z,2.09
2018-03-06T18:21:48.169Z,2.05
2018-03-06T18:24:17.246Z,2.14
2018-03-06T18:26:45.598Z,2.13
2018-03-06T18:29:13.942Z,2.12
2018-03-06T18:31:42.312Z,2.11
2018-03-06T18:34:11.430Z,2.11
2018-03-06T18:36:39.751Z,2.13
2018-03-06T18:39:08.106Z,2.16
2018-03-06T18:41:36.468Z,2.17
2018-03-06T18:44:04.792Z,2.19
2018-03-06T18:46:33.562Z,2.17
2018-03-06T18:49:02.655Z,2.18
2018-03-06T18:51:32.370Z,2.19
2018-03-06T18:54:01.471Z,2.21
2018-03-06T18:56:29.787Z,2.20
2018-03-06T18:58:58.133Z,2.19
2018-03-06T19:05:16.545Z,2.20
2018-03-06T19:07:44.920Z,2.21
2018-03-06T19:10:13.265Z,2.24
2018-03-06T19:12:41.607Z,2.17
2018-03-06T19:15:10.695Z,2.21
2018-03-06T19:17:39.817Z,2.22
2018-03-06T19:20:08.139Z,2.23
2018-03-06T19:22:36.540Z,2.28
2018-03-06T19:25:04.942Z,2.24
2018-03-06T19:27:33.252Z,2.28
2018-03-06T19:30:01.590Z,2.31
2018-03-06T19:32:29.972Z,2.38
2018-03-06T19:34:59.064Z,2.30
2018-03-06T19:37:28.219Z,2.30
2018-03-06T19:39:57.543Z,2.39
2018-03-06T19:42:25.952Z,2.29
2018-03-06T19:44:55.038Z,2.28
2018-03-06T19:47:25.078Z,2.22
2018-03-06T19:49:53.533Z,2.26
2018-03-06T19:52:22.699Z,2.27
2018-03-06T19:54:51.838Z,2.31
2018-03-06T19:57:20.971Z,2.24
2018-03-06T19:59:49.300Z,2.24
2018-03-06T20:02:18.422Z,2.27
2018-03-06T20:04:46.748Z,2.24
2018-03-06T20:07:15.122Z,2.16
2018-03-06T20:09:43.455Z,2.15
2018-03-06T20:12:11.794Z,2.12
2018-03-06T20:14:46.417Z,2.13
2018-03-06T20:17:15.159Z,2.08
2018-03-06T20:19:43.506Z,2.10
2018-03-06T20:22:11.838Z,2.06
2018-03-06T20:24:45.636Z,2.00
2018-03-06T20:27:14.775Z,2.06
2018-03-06T20:29:43.894Z,2.05
2018-03-06T20:32:18.679Z,2.05
2018-03-06T20:34:46.998Z,2.09
2018-03-06T20:37:15.407Z,2.07
2018-03-06T20:39:49.285Z,2.17
2018-03-06T20:42:17.648Z,2.18
2018-03-06T20:44:46.747Z,2.15
2018-03-06T20:47:20.519Z,2.05
2018-03-06T20:49:48.914Z,2.03
2018-03-06T20:52:17.997Z,1.98
2018-03-06T20:54:51.716Z,1.98
2018-03-06T20:57:20.430Z,2.02
2018-03-06T20:59:48.763Z,1.95
2018-03-06T21:02:17.899Z,2.02
2018-03-06T21:04:46.250Z,1.95
2018-03-06T21:07:15.379Z,1.94
2018-03-06T21:09:43.684Z,1.96
2018-03-06T21:12:12.057Z,1.99
2018-03-06T21:14:40.372Z,2.00
2018-03-06T21:17:09.471Z,1.98
2018-03-06T21:19:38.620Z,2.01
2018-03-06T21:22:06.938Z,2.06
2018-03-06T21:24:36.416Z,2.03
2018-03-06T21:27:04.724Z,2.11
2018-03-06T21:29:33.859Z,1.99
2018-03-06T21:32:02.184Z,2.01
2018-03-06T21:34:30.514Z,1.95
2018-03-06T21:36:58.862Z,1.97
2018-03-06T21:39:28.010Z,1.98
2018-03-06T21:41:56.322Z,2.01
2018-03-06T21:44:24.651Z,1.95
2018-03-06T21:46:53.090Z,1.98
2018-03-06T21:49:21.424Z,1.88
2018-03-06T21:51:49.794Z,1.89
2018-03-06T21:54:18.151Z,1.84
2018-03-06T21:56:46.469Z,1.84
2018-03-06T21:59:14.837Z,1.78
2018-03-06T22:01:43.930Z,1.82
2018-03-06T22:04:12.258Z,1.80
2018-03-06T22:06:40.588Z,1.77
2018-03-06T22:09:08.954Z,1.76
2018-03-06T22:11:37.281Z,1.81
2018-03-06T22:14:06.366Z,1.82
2018-03-06T22:16:35.480Z,1.79
2018-03-06T22:19:03.798Z,1.79
2018-03-06T22:21:32.146Z,1.76
2018-03-06T22:24:00.485Z,1.75
2018-03-06T22:26:28.840Z,1.74
2018-03-06T22:28:57.184Z,1.70
2018-03-06T22:31:25.524Z,1.76
2018-03-06T22:33:54.607Z,1.78
2018-03-06T22:36:22.994Z,1.81
2018-03-06T22:38:51.310Z,1.81
2018-03-06T22:41:19.626Z,1.82
2018-03-06T22:43:48.725Z,1.86
2018-03-06T22:46:17.047Z,1.92
2018-03-06T22:48:45.458Z,1.89
2018-03-06T22:51:13.878Z,1.93
2018-03-06T22:53:42.966Z,1.90
2018-03-06T22:56:11.329Z,1.87
2018-03-06T22:58:39.673Z,1.91
2018-03-06T23:01:07.982Z,1.84
2018-03-06T23:03:36.329Z,1.84
2018-03-06T23:06:04.665Z,1.82
2018-03-06T23:08:33.733Z,1.81
2018-03-06T23:11:02.080Z,1.82
2018-03-06T23:13:30.386Z,1.83
2018-03-06T23:15:58.758Z,1.79
2018-03-06T23:18:27.143Z,1.83
2018-03-06T23:20:55.452Z,1.80
2018-03-06T23:23:24.585Z,1.81
2018-03-06T23:25:52.936Z,1.84
2018-03-06T23:28:22.048Z,1.82
2018-03-06T23:30:50.389Z,1.79
2018-03-06T23:33:18.712Z,1.80
2018-03-06T23:35:47.052Z,1.85
2018-03-06T23:38:16.197Z,1.93
2018-03-06T23:40:44.569Z,1.87
2018-03-06T23:43:12.887Z,1.84
2018-03-06T23:45:41.221Z,1.85
2018-03-06T23:48:09.568Z,1.89
2018-03-06T23:50:37.877Z,1.90
2018-03-06T23:53:06.228Z,1.84
2018-03-06T23:55:34.565Z,1.86
2018-03-06T23:58:02.936Z,1.84
